Observations for Trim Market St
| Time | AQI | Temp °C | Hum % | Pres Pa | CO μg/m³ | H₂S μg/m³ | NO μg/m³ | NO₂ μg/m³ | O₃ μg/m³ | SO₂ μg/m³ | PM1 μg/m³ | PM2.5 μg/m³ | PM10 μg/m³ |
|---|---|---|---|---|---|---|---|---|---|---|---|---|---|
| Monday 13 July 2026 | |||||||||||||
| 16:11 | 1 | 32.8 | 29 | 66,208 | 0 | 0 | 0 | 0 | 32.04 | 0 | 0.71 | 4.46 | 4.91 |
| 16:08 | 1 | 33 | 28 | 66,238 | 0 | 0 | 0 | 0.44 | 36.66 | 0 | 1.43 | 5.01 | 5.52 |
| 16:07 | 1 | 33 | 28 | 66,238 | 0 | 0 | 0 | 0 | 36.41 | 0 | 1.43 | 5.02 | 5.52 |
| 16:06 | 1 | 33.1 | 28 | 66,272 | 0 | 0 | 0 | 0 | 42.52 | 0 | 1.43 | 4.48 | 4.9 |
| 15:57 | 1 | 33.3 | 29 | 66,301 | 0 | 0 | 0 | 0 | 28.56 | 0 | 0.71 | 3.91 | 4.3 |
| 15:53 | 1 | 33.3 | 29 | 66,297 | 0 | 0 | 0 | 0.86 | 21.91 | 0 | 2.14 | 4.97 | 5.79 |
| 15:52 | 1 | 33.3 | 30 | 66,286 | 0 | 0 | 0 | 0 | 32.88 | 0 | 0.71 | 4.42 | 4.86 |
| 15:51 | 1 | 33.3 | 29 | 66,299 | 0 | 0 | 0 | 2.24 | 33.42 | 0 | 1.43 | 4.42 | 4.92 |
| 15:50 | 1 | 33.4 | 29 | 66,286 | 0 | 0 | 0 | 3.14 | 33.77 | 0 | 1.43 | 4.98 | 5.47 |
| 15:49 | 1 | 33.4 | 29 | 66,303 | 0 | 0 | 0 | 0.85 | 35.88 | 0 | 2.14 | 4.98 | 5.48 |
| 15:48 | 1 | 33.5 | 29 | 66,292 | 0 | 0 | 0 | 0 | 29.65 | 0 | 2.14 | 5.53 | 6.08 |
| 15:47 | 1 | 33.5 | 29 | 66,272 | 0 | 0 | 0 | 0 | 25 | 0 | 1.43 | 4.98 | 5.47 |
| 15:46 | 1 | 33.5 | 30 | 66,276 | 0 | 0 | 0 | 0 | 29.98 | 0 | 1.43 | 5.51 | 6.06 |
| 15:45 | 1 | 33.5 | 30 | 66,288 | 0 | 0 | 0 | 0 | 26.33 | 0 | 0.71 | 4.41 | 4.86 |
| 15:44 | 1 | 33.5 | 30 | 66,297 | 0 | 0 | 0 | 0.53 | 27.83 | 0 | 0.71 | 4.4 | 4.84 |
| 15:43 | 1 | 33.5 | 30 | 66,282 | 0 | 0 | 0 | 0.71 | 25.5 | 0 | 0.71 | 4.93 | 5.43 |
| 15:42 | 1 | 33.5 | 30 | 66,260 | 0 | 0 | 0 | 0.2 | 34.72 | 0 | 0.71 | 4.39 | 4.83 |
| 15:41 | 1 | 33.4 | 30 | 66,264 | 0 | 0 | 0 | 4.73 | 33.09 | 0 | 1.43 | 4.93 | 5.42 |
| 15:40 | 1 | 33.4 | 30 | 66,268 | 0 | 0 | 0 | 9.63 | 40.69 | 0 | 2.14 | 5.47 | 6.02 |
| 15:38 | 1 | 33.4 | 30 | 66,299 | 0 | 0 | 0 | 4.64 | 37.09 | 0 | 0.71 | 3.85 | 4.23 |